createdAt,value
2023-01-05T00:01:27.089Z,91.75
2023-01-05T00:03:53.710Z,91.73
2023-01-05T00:06:20.368Z,91.30
2023-01-05T00:08:47.659Z,90.86
2023-01-05T00:11:43.859Z,90.32
2023-01-05T00:14:41.906Z,90.71
2023-01-05T00:17:30.394Z,90.36
2023-01-05T00:20:15.911Z,90.44
2023-01-05T00:22:47.383Z,90.31
2023-01-05T00:33:25.527Z,89.58
2023-01-05T00:35:52.039Z,89.75
2023-01-05T00:38:18.657Z,89.29
2023-01-05T00:40:45.299Z,89.45
2023-01-05T00:45:44.186Z,89.48
2023-01-05T00:48:10.788Z,89.19
2023-01-05T00:50:37.396Z,89.33
2023-01-05T00:53:03.964Z,89.59
2023-01-05T00:55:30.527Z,89.35
2023-01-05T00:57:57.044Z,89.15
2023-01-05T01:00:23.619Z,89.06
2023-01-05T01:05:26.255Z,89.44
2023-01-05T01:07:53.210Z,89.16
2023-01-05T01:10:19.984Z,89.42
2023-01-05T01:12:46.529Z,89.13
2023-01-05T01:15:13.116Z,89.03
2023-01-05T01:17:39.765Z,88.92
2023-01-05T01:20:07.085Z,89.25
2023-01-05T01:22:33.699Z,89.02
2023-01-05T01:25:01.373Z,89.46
2023-01-05T01:27:30.316Z,89.74
2023-01-05T01:29:56.893Z,89.54
2023-01-05T01:32:24.594Z,89.93
2023-01-05T01:34:51.401Z,89.82
2023-01-05T01:37:18.013Z,89.81
2023-01-05T01:39:44.577Z,89.89
2023-01-05T01:42:15.255Z,89.89
2023-01-05T01:44:48.847Z,90.18
2023-01-05T01:47:40.000Z,89.64
2023-01-05T01:50:19.669Z,90.04
2023-01-05T01:52:50.189Z,90.08
2023-01-05T01:55:18.168Z,90.15
2023-01-05T01:57:47.783Z,90.36
2023-01-05T02:00:15.085Z,90.47
2023-01-05T02:02:42.274Z,90.44
2023-01-05T02:05:12.601Z,90.49
2023-01-05T02:07:45.008Z,90.38
2023-01-05T02:10:13.154Z,90.48
2023-01-05T02:13:08.655Z,90.47
2023-01-05T02:15:51.540Z,90.73
2023-01-05T02:18:39.313Z,90.87
2023-01-05T02:21:24.403Z,91.06
2023-01-05T02:23:53.812Z,91.23
2023-01-05T02:26:29.364Z,91.42
2023-01-05T02:29:11.170Z,91.74
2023-01-05T02:31:43.859Z,91.28
2023-01-05T02:34:38.227Z,91.60
2023-01-05T02:37:19.206Z,91.79
2023-01-05T02:39:58.168Z,91.68
2023-01-05T02:42:27.662Z,91.92
2023-01-05T02:44:54.207Z,91.90
2023-01-05T02:47:27.923Z,91.93
2023-01-05T02:50:23.768Z,92.14
2023-01-05T02:55:43.248Z,92.62
2023-01-05T02:58:46.323Z,93.04
2023-01-05T03:01:28.767Z,93.27
2023-01-05T03:04:00.181Z,93.71
2023-01-05T03:06:56.839Z,93.58
2023-01-05T03:09:27.587Z,94.14
2023-01-05T03:12:24.112Z,94.32
2023-01-05T03:14:54.735Z,94.63
2023-01-05T03:17:29.413Z,94.54
2023-01-05T03:19:57.963Z,94.04
2023-01-05T03:22:48.391Z,94.33
2023-01-05T03:25:37.169Z,94.66
2023-01-05T03:28:25.044Z,94.37
2023-01-05T03:31:22.823Z,94.46
2023-01-05T03:34:25.756Z,94.79
2023-01-05T03:37:00.135Z,95.36
2023-01-05T03:39:27.839Z,95.69
2023-01-05T03:41:54.977Z,95.41
2023-01-05T03:44:22.540Z,95.50
2023-01-05T03:46:49.195Z,95.60
2023-01-05T03:49:17.768Z,95.44
2023-01-05T03:51:44.301Z,95.16
2023-01-05T03:54:10.924Z,95.43
2023-01-05T03:56:37.560Z,94.73
2023-01-05T03:59:04.118Z,95.44
2023-01-05T04:01:30.751Z,95.73
2023-01-05T04:03:57.512Z,96.48
2023-01-05T04:06:24.155Z,96.71
2023-01-05T04:08:50.715Z,97.89
2023-01-05T04:11:20.777Z,98.34
2023-01-05T04:13:47.426Z,99.46
2023-01-05T04:18:53.150Z,100.00
2023-01-05T04:21:19.883Z,100.00
2023-01-05T04:23:46.430Z,100.00
2023-01-05T04:26:13.016Z,100.00
2023-01-05T04:28:39.609Z,100.00
2023-01-05T04:31:06.262Z,100.00
2023-01-05T04:36:04.538Z,100.00
2023-01-05T04:38:31.155Z,100.00
2023-01-05T04:40:57.834Z,100.00
2023-01-05T04:43:24.525Z,100.00
2023-01-05T04:45:51.085Z,100.00
2023-01-05T04:48:17.650Z,100.00
2023-01-05T04:53:16.350Z,100.00
2023-01-05T04:58:24.030Z,100.00
2023-01-05T05:00:51.082Z,100.00
2023-01-05T05:05:49.435Z,100.00
2023-01-05T05:08:16.026Z,100.00
2023-01-05T05:10:42.670Z,100.00
2023-01-05T05:13:09.298Z,100.00
2023-01-05T05:18:09.400Z,100.00
2023-01-05T05:20:37.151Z,100.00
2023-01-05T05:23:03.777Z,100.00
2023-01-05T05:25:30.395Z,100.00
2023-01-05T05:27:56.969Z,100.00
2023-01-05T05:30:23.619Z,100.00
2023-01-05T05:32:50.201Z,100.00
2023-01-05T05:35:17.054Z,100.00
2023-01-05T05:37:43.762Z,100.00
2023-01-05T05:40:11.344Z,100.00
2023-01-05T05:45:09.637Z,100.00
2023-01-05T05:47:36.255Z,100.00
2023-01-05T05:50:02.840Z,100.00
2023-01-05T05:52:29.404Z,100.00
2023-01-05T05:54:56.032Z,100.00
2023-01-05T05:57:22.767Z,100.00
2023-01-05T05:59:49.377Z,100.00
2023-01-05T06:02:16.896Z,100.00
2023-01-05T06:04:43.618Z,100.00
2023-01-05T06:07:10.162Z,100.00
2023-01-05T06:09:36.775Z,100.00
2023-01-05T06:12:03.747Z,100.00
2023-01-05T06:14:30.340Z,100.00
2023-01-05T06:16:56.960Z,100.00
2023-01-05T06:19:23.603Z,100.00
2023-01-05T06:21:50.141Z,100.00
2023-01-05T06:24:16.808Z,100.00
2023-01-05T06:26:43.414Z,100.00
2023-01-05T06:29:10.091Z,100.00
2023-01-05T06:31:36.764Z,100.00
2023-01-05T06:36:34.670Z,100.00
2023-01-05T06:39:01.223Z,100.00
2023-01-05T06:41:27.834Z,100.00
2023-01-05T06:43:54.396Z,100.00
2023-01-05T06:46:21.025Z,100.00
2023-01-05T06:48:47.614Z,100.00
2023-01-05T06:51:14.225Z,100.00
2023-01-05T06:53:40.781Z,100.00
2023-01-05T06:56:07.547Z,100.00
2023-01-05T06:58:34.102Z,100.00
2023-01-05T07:01:00.741Z,100.00
2023-01-05T07:03:27.452Z,100.00
2023-01-05T07:05:54.011Z,100.00
2023-01-05T07:08:20.626Z,100.00
2023-01-05T07:10:47.209Z,100.00
2023-01-05T07:13:13.763Z,100.00
2023-01-05T07:15:40.432Z,100.00
2023-01-05T07:18:07.209Z,100.00
2023-01-05T07:20:33.909Z,100.00
2023-01-05T07:23:00.474Z,100.00
2023-01-05T07:25:31.698Z,100.00
2023-01-05T07:27:58.836Z,100.00
2023-01-05T07:30:25.501Z,100.00
2023-01-05T07:32:52.079Z,100.00
2023-01-05T07:35:18.799Z,100.00
2023-01-05T07:37:45.426Z,100.00
2023-01-05T07:40:12.572Z,100.00
2023-01-05T07:42:39.180Z,100.00
2023-01-05T07:45:06.974Z,99.48
2023-01-05T07:50:07.084Z,98.87
2023-01-05T07:55:12.078Z,98.34
2023-01-05T07:57:38.757Z,98.61
2023-01-05T08:00:06.639Z,97.76
2023-01-05T08:02:36.087Z,97.69
2023-01-05T08:07:36.621Z,96.37
2023-01-05T08:10:22.770Z,95.21
2023-01-05T08:13:08.091Z,94.95
2023-01-05T08:15:34.803Z,93.86
2023-01-05T08:18:01.436Z,93.50
2023-01-05T08:20:27.985Z,92.72
2023-01-05T08:25:28.110Z,91.56
2023-01-05T08:27:54.660Z,91.38
2023-01-05T08:30:21.382Z,90.54
2023-01-05T08:32:47.947Z,88.81
2023-01-05T08:35:14.550Z,89.80
2023-01-05T08:37:44.839Z,89.69
2023-01-05T08:40:11.821Z,88.62
2023-01-05T08:42:38.364Z,88.48
2023-01-05T08:45:05.439Z,88.94
2023-01-05T08:47:31.978Z,89.26
2023-01-05T08:52:38.978Z,89.42
2023-01-05T08:55:08.117Z,89.82
2023-01-05T08:57:34.853Z,88.70
2023-01-05T09:00:01.492Z,89.35
2023-01-05T09:02:28.118Z,89.12
2023-01-05T09:07:34.412Z,90.25
2023-01-05T09:10:00.940Z,88.96
2023-01-05T09:12:32.745Z,89.54
2023-01-05T09:14:59.780Z,89.44
2023-01-05T09:17:26.326Z,89.30
2023-01-05T09:22:24.133Z,89.38
2023-01-05T09:24:50.692Z,89.24
2023-01-05T09:27:17.341Z,86.52
2023-01-05T09:29:43.853Z,84.29
2023-01-05T09:32:11.633Z,85.90
2023-01-05T09:34:38.208Z,85.38
2023-01-05T09:37:04.803Z,84.51
2023-01-05T09:39:31.651Z,83.14
2023-01-05T09:42:04.550Z,80.26
2023-01-05T09:44:41.411Z,80.92
2023-01-05T09:47:14.075Z,80.38
2023-01-05T09:49:41.672Z,80.91
2023-01-05T09:52:11.004Z,79.67
2023-01-05T09:54:39.249Z,80.89
2023-01-05T09:57:15.089Z,79.96
2023-01-05T09:59:45.493Z,78.97
2023-01-05T10:02:33.960Z,78.84
2023-01-05T10:05:02.801Z,79.48
2023-01-05T10:07:53.470Z,79.35
2023-01-05T10:10:38.706Z,79.49
2023-01-05T10:13:08.567Z,79.58
2023-01-05T10:15:46.143Z,79.60
2023-01-05T10:18:15.583Z,80.21
2023-01-05T10:21:06.063Z,79.28
2023-01-05T10:24:09.765Z,78.32
2023-01-05T10:27:23.079Z,79.10
2023-01-05T10:29:47.369Z,78.92
2023-01-05T10:32:26.424Z,78.72
2023-01-05T10:34:57.439Z,78.64
2023-01-05T10:38:06.259Z,76.70
2023-01-05T10:41:01.603Z,78.49
2023-01-05T10:43:49.893Z,78.36
2023-01-05T10:46:32.569Z,77.78
2023-01-05T10:49:02.008Z,77.16
2023-01-05T10:51:33.808Z,77.91
2023-01-05T10:54:02.319Z,77.44
2023-01-05T10:56:29.646Z,77.38
2023-01-05T10:59:11.028Z,76.91
2023-01-05T11:01:43.055Z,77.14
2023-01-05T11:04:33.165Z,77.22
2023-01-05T11:07:06.810Z,77.69
2023-01-05T11:09:38.978Z,75.89
2023-01-05T11:14:47.692Z,74.82
2023-01-05T11:19:58.409Z,79.09
2023-01-05T11:22:35.803Z,74.62
2023-01-05T11:25:22.958Z,75.54
2023-01-05T11:31:05.406Z,75.40
2023-01-05T11:36:14.724Z,75.06
2023-01-05T11:38:41.384Z,75.12
2023-01-05T11:41:12.336Z,75.62
2023-01-05T11:43:38.979Z,75.92
2023-01-05T11:46:05.895Z,75.00
2023-01-05T11:48:35.446Z,74.71
2023-01-05T11:51:03.008Z,74.04
2023-01-05T11:53:35.227Z,74.39
2023-01-05T11:56:07.796Z,74.24
2023-01-05T11:58:45.513Z,74.15
2023-01-05T12:01:32.967Z,74.96
2023-01-05T12:04:19.947Z,74.07
2023-01-05T12:07:01.450Z,74.13
2023-01-05T12:09:35.465Z,73.56
2023-01-05T12:12:23.879Z,73.45
2023-01-05T12:15:12.124Z,72.94
2023-01-05T12:18:10.351Z,73.95
2023-01-05T12:20:57.120Z,73.71
2023-01-05T12:23:54.413Z,73.50
2023-01-05T12:26:36.328Z,73.77
2023-01-05T12:35:18.624Z,75.38
2023-01-05T12:37:59.998Z,74.71
2023-01-05T12:40:58.517Z,75.03
2023-01-05T12:43:36.973Z,75.67
2023-01-05T12:46:09.000Z,75.96
2023-01-05T12:48:51.658Z,75.90
2023-01-05T12:51:23.984Z,76.04
2023-01-05T12:54:09.763Z,75.50
2023-01-05T12:56:55.851Z,75.67
2023-01-05T12:59:35.117Z,75.25
2023-01-05T13:02:23.729Z,75.79
2023-01-05T13:04:59.283Z,76.41
2023-01-05T13:07:42.693Z,76.82
2023-01-05T13:10:21.728Z,76.50
2023-01-05T13:13:00.950Z,76.73
2023-01-05T13:15:38.788Z,75.93
2023-01-05T13:18:07.784Z,75.76
2023-01-05T13:20:38.523Z,75.75
2023-01-05T13:23:14.135Z,76.80
2023-01-05T13:26:04.210Z,75.89
2023-01-05T13:28:32.030Z,76.90
2023-01-05T13:31:21.398Z,76.61
2023-01-05T13:34:15.452Z,76.39
2023-01-05T13:37:00.589Z,76.50
2023-01-05T13:39:57.589Z,76.31
2023-01-05T13:42:42.690Z,76.23
2023-01-05T13:45:35.920Z,76.67
2023-01-05T13:48:34.115Z,77.02
2023-01-05T13:51:18.174Z,77.03
2023-01-05T13:56:28.470Z,77.14
2023-01-05T13:59:34.472Z,76.93
2023-01-05T14:02:04.107Z,77.33
2023-01-05T14:04:34.840Z,77.52
2023-01-05T14:07:06.321Z,77.00
2023-01-05T14:09:40.098Z,76.60
2023-01-05T14:12:09.311Z,77.33
2023-01-05T14:15:02.824Z,76.58
2023-01-05T14:17:58.130Z,76.02
2023-01-05T14:20:49.729Z,76.38
2023-01-05T14:23:22.268Z,75.75
2023-01-05T14:26:04.151Z,76.65
2023-01-05T14:28:30.657Z,74.09
2023-01-05T14:31:17.468Z,75.28
2023-01-05T14:34:03.673Z,75.43
2023-01-05T14:36:42.372Z,75.95
2023-01-05T14:39:17.594Z,75.74
2023-01-05T14:41:46.681Z,76.18
2023-01-05T14:44:23.595Z,76.03
2023-01-05T14:46:55.446Z,77.18
2023-01-05T14:49:30.925Z,76.00
2023-01-05T14:52:00.853Z,75.94
2023-01-05T14:55:05.620Z,76.49
2023-01-05T14:57:49.303Z,76.79
2023-01-05T15:00:22.737Z,75.84
2023-01-05T15:03:05.600Z,77.17
2023-01-05T15:05:34.540Z,77.22
2023-01-05T15:08:16.126Z,77.10
2023-01-05T15:11:02.784Z,76.73
2023-01-05T15:13:43.643Z,76.50
2023-01-05T15:16:41.327Z,77.05
2023-01-05T15:19:35.918Z,77.28
2023-01-05T15:22:37.143Z,76.70
2023-01-05T15:28:18.801Z,78.14
2023-01-05T15:31:13.411Z,78.10
2023-01-05T15:33:52.088Z,76.82
2023-01-05T15:36:26.843Z,77.92
2023-01-05T15:38:54.563Z,77.04
2023-01-05T15:41:22.665Z,77.11
2023-01-05T15:43:50.402Z,77.16
2023-01-05T15:46:19.660Z,77.27
2023-01-05T15:48:49.877Z,77.05
2023-01-05T15:54:05.528Z,77.28
2023-01-05T15:56:39.811Z,77.82
2023-01-05T15:59:22.597Z,76.26
2023-01-05T16:01:49.233Z,76.43
2023-01-05T16:04:15.955Z,77.04
2023-01-05T16:06:47.531Z,76.18
2023-01-05T16:09:22.139Z,76.60
2023-01-05T16:11:51.013Z,75.84
2023-01-05T16:14:21.924Z,76.71
2023-01-05T16:16:54.630Z,77.54
2023-01-05T16:22:30.895Z,76.41
2023-01-05T16:25:08.412Z,77.22
2023-01-05T16:30:31.642Z,76.55
2023-01-05T16:33:13.345Z,76.91
2023-01-05T16:35:48.536Z,77.10
2023-01-05T16:41:08.329Z,77.63
2023-01-05T16:43:45.667Z,77.44
2023-01-05T16:46:20.445Z,77.09
2023-01-05T16:48:51.005Z,77.91
2023-01-05T16:51:21.253Z,78.27
2023-01-05T16:53:57.051Z,79.02
2023-01-05T16:56:32.833Z,79.04
2023-01-05T16:59:00.460Z,79.07
2023-01-05T17:01:44.415Z,79.20
2023-01-05T17:04:12.637Z,79.52
2023-01-05T17:06:40.995Z,79.51
2023-01-05T17:09:18.807Z,79.60
2023-01-05T17:11:45.318Z,80.56
2023-01-05T17:14:13.319Z,79.00
2023-01-05T17:16:39.921Z,80.51
2023-01-05T17:19:13.190Z,80.89
2023-01-05T17:21:44.583Z,81.64
2023-01-05T17:24:13.099Z,81.63
2023-01-05T17:26:43.606Z,81.94
2023-01-05T17:29:21.334Z,81.78
2023-01-05T17:34:20.767Z,82.11
2023-01-05T17:36:48.986Z,81.71
2023-01-05T17:39:20.351Z,81.06
2023-01-05T17:41:47.159Z,81.57
2023-01-05T17:44:14.159Z,82.02
2023-01-05T17:46:42.876Z,80.43
2023-01-05T17:49:18.277Z,80.93
2023-01-05T17:51:45.332Z,81.54
2023-01-05T17:54:12.526Z,82.09
2023-01-05T17:56:39.369Z,83.34
2023-01-05T17:59:06.080Z,82.40
2023-01-05T18:01:35.488Z,83.20
2023-01-05T18:04:02.140Z,82.85
2023-01-05T18:06:28.759Z,83.31
2023-01-05T18:08:55.363Z,83.57
2023-01-05T18:11:22.047Z,83.40
2023-01-05T18:13:48.811Z,83.65
2023-01-05T18:16:15.871Z,84.94
2023-01-05T18:18:43.039Z,84.48
2023-01-05T18:21:09.740Z,84.48
2023-01-05T18:23:36.513Z,84.33
2023-01-05T18:26:08.423Z,84.33
2023-01-05T18:28:36.172Z,85.25
2023-01-05T18:31:12.812Z,86.37
2023-01-05T18:33:39.491Z,91.98
2023-01-05T18:36:12.966Z,84.81
2023-01-05T18:38:39.821Z,85.99
2023-01-05T18:41:06.909Z,85.12
2023-01-05T18:43:33.783Z,84.86
2023-01-05T18:46:01.307Z,86.04
2023-01-05T18:48:27.986Z,86.47
2023-01-05T18:50:54.888Z,86.30
2023-01-05T18:53:22.313Z,86.30
2023-01-05T18:55:49.150Z,87.30
2023-01-05T19:00:48.056Z,87.94
2023-01-05T19:03:15.037Z,88.10
2023-01-05T19:05:43.745Z,88.50
2023-01-05T19:08:12.452Z,89.03
2023-01-05T19:10:39.345Z,88.48
2023-01-05T19:13:06.261Z,89.13
2023-01-05T19:15:37.219Z,88.40
2023-01-05T19:18:04.763Z,88.70
2023-01-05T19:20:31.954Z,88.33
2023-01-05T19:22:59.987Z,88.84
2023-01-05T19:25:26.661Z,89.36
2023-01-05T19:27:53.249Z,89.13
2023-01-05T19:30:22.471Z,88.20
2023-01-05T19:32:49.596Z,90.59
2023-01-05T19:35:16.272Z,88.49
2023-01-05T19:37:42.804Z,88.84
2023-01-05T19:40:10.498Z,100.00
2023-01-05T19:42:37.147Z,89.29
2023-01-05T19:45:04.170Z,86.55
2023-01-05T19:47:31.125Z,86.21
2023-01-05T19:49:57.672Z,87.28
2023-01-05T19:52:29.768Z,88.29
2023-01-05T19:57:29.999Z,86.85
2023-01-05T19:59:56.562Z,87.13
2023-01-05T20:02:23.207Z,85.07
2023-01-05T20:04:50.302Z,84.48
2023-01-05T20:07:16.884Z,86.86
2023-01-05T20:09:43.497Z,83.83
2023-01-05T20:12:14.727Z,83.91
2023-01-05T20:17:19.246Z,84.76
2023-01-05T20:19:46.217Z,84.91
2023-01-05T20:22:14.416Z,85.15
2023-01-05T20:24:41.941Z,85.35
2023-01-05T20:27:13.342Z,84.89
2023-01-05T20:29:40.912Z,84.70
2023-01-05T20:34:59.385Z,85.20
2023-01-05T20:37:31.466Z,85.87
2023-01-05T20:53:14.373Z,86.89
2023-01-05T20:55:50.923Z,86.88
2023-01-05T20:58:24.602Z,86.65
2023-01-05T21:01:10.104Z,87.58
2023-01-05T21:03:45.047Z,87.56
2023-01-05T21:06:19.304Z,88.16
2023-01-05T21:08:52.224Z,87.99
2023-01-05T21:11:26.193Z,88.69
2023-01-05T21:16:48.600Z,89.28
2023-01-05T21:19:18.229Z,89.31
2023-01-05T21:21:46.678Z,89.77
2023-01-05T21:24:14.606Z,89.61
2023-01-05T21:26:41.423Z,91.06
2023-01-05T21:29:10.199Z,90.63
2023-01-05T21:31:37.761Z,89.94
2023-01-05T21:34:04.835Z,92.23
2023-01-05T21:36:36.409Z,93.18
2023-01-05T21:39:11.960Z,94.69
2023-01-05T21:41:58.821Z,92.98
2023-01-05T21:44:25.909Z,93.48
2023-01-05T21:46:52.581Z,92.65
2023-01-05T21:49:19.849Z,91.64
2023-01-05T21:55:02.160Z,93.24
2023-01-05T21:57:28.806Z,93.71
2023-01-05T22:02:35.935Z,93.42
2023-01-05T22:05:02.640Z,93.37
2023-01-05T22:07:31.895Z,94.07
2023-01-05T22:09:58.472Z,93.66
2023-01-05T22:12:25.193Z,93.60
2023-01-05T22:17:34.432Z,93.12
2023-01-05T22:20:01.017Z,93.09
2023-01-05T22:22:33.662Z,92.87
2023-01-05T22:25:06.585Z,92.59
2023-01-05T22:27:39.166Z,92.72
2023-01-05T22:30:12.140Z,92.87
2023-01-05T22:32:44.755Z,93.73
2023-01-05T22:35:17.447Z,93.31
2023-01-05T22:37:52.415Z,92.56
2023-01-05T22:40:25.126Z,93.15
2023-01-05T22:42:57.782Z,92.52
2023-01-05T22:45:32.583Z,92.85
2023-01-05T22:48:05.655Z,91.98
2023-01-05T22:50:38.350Z,93.60
2023-01-05T22:53:11.194Z,92.81
2023-01-05T22:55:44.293Z,92.62
2023-01-05T22:58:16.930Z,92.82
2023-01-05T23:00:49.611Z,92.36
2023-01-05T23:03:22.755Z,92.40
2023-01-05T23:05:55.369Z,92.07
2023-01-05T23:08:28.398Z,92.56
2023-01-05T23:11:07.369Z,93.09
2023-01-05T23:13:40.996Z,93.81
2023-01-05T23:16:14.548Z,93.38
2023-01-05T23:18:49.050Z,93.04
2023-01-05T23:21:24.313Z,93.21
2023-01-05T23:23:58.202Z,93.06
2023-01-05T23:26:31.145Z,92.32
2023-01-05T23:29:04.189Z,93.08
2023-01-05T23:31:36.992Z,92.32
2023-01-05T23:34:09.631Z,93.37
2023-01-05T23:36:42.285Z,94.71
2023-01-05T23:39:14.990Z,93.41
2023-01-05T23:41:47.718Z,92.46
2023-01-05T23:46:51.564Z,94.30
2023-01-05T23:49:18.062Z,93.34
2023-01-05T23:51:44.659Z,93.21
2023-01-05T23:54:11.253Z,94.05
2023-01-05T23:56:37.903Z,94.30
